RJNG(METAR)
07/27 17:00
METAR RJNG 270800Z 04006KT 9999 FEW030 BKN130 BKN200 29/22 Q0998 RMK
1CU030 5AC130 A2948=
戻る
トップページへ戻る
IMOC Co,.Ltd.